sensor_id;sensor_type;location;lat;lon;timestamp;P1;durP1;ratioP1;P2;durP2;ratioP2
41875;SDS011;27555;50.808;4.402;2023-07-13T00:01:03;8.25;;;1.50;;
41875;SDS011;27555;50.808;4.402;2023-07-13T00:03:29;10.88;;;2.08;;
41875;SDS011;27555;50.808;4.402;2023-07-13T00:06:00;10.45;;;2.35;;
41875;SDS011;27555;50.808;4.402;2023-07-13T00:08:29;9.70;;;1.95;;
41875;SDS011;27555;50.808;4.402;2023-07-13T00:10:57;6.93;;;1.98;;
41875;SDS011;27555;50.808;4.402;2023-07-13T00:13:23;6.22;;;1.60;;
41875;SDS011;27555;50.808;4.402;2023-07-13T00:15:49;10.52;;;2.53;;
41875;SDS011;27555;50.808;4.402;2023-07-13T00:18:14;5.43;;;2.00;;
41875;SDS011;27555;50.808;4.402;2023-07-13T00:20:40;12.18;;;2.63;;
41875;SDS011;27555;50.808;4.402;2023-07-13T00:23:06;10.63;;;1.52;;
41875;SDS011;27555;50.808;4.402;2023-07-13T00:25:32;6.53;;;1.30;;
41875;SDS011;27555;50.808;4.402;2023-07-13T00:27:57;6.90;;;1.75;;
41875;SDS011;27555;50.808;4.402;2023-07-13T00:30:23;10.05;;;1.83;;
41875;SDS011;27555;50.808;4.402;2023-07-13T00:32:49;7.78;;;1.45;;
41875;SDS011;27555;50.808;4.402;2023-07-13T00:35:15;7.75;;;2.03;;
41875;SDS011;27555;50.808;4.402;2023-07-13T00:37:41;7.50;;;1.92;;
41875;SDS011;27555;50.808;4.402;2023-07-13T00:40:07;7.45;;;1.58;;
41875;SDS011;27555;50.808;4.402;2023-07-13T00:42:35;11.40;;;1.85;;
41875;SDS011;27555;50.808;4.402;2023-07-13T00:45:03;16.95;;;3.03;;
41875;SDS011;27555;50.808;4.402;2023-07-13T00:47:39;7.03;;;1.30;;
41875;SDS011;27555;50.808;4.402;2023-07-13T00:50:06;22.15;;;2.03;;
41875;SDS011;27555;50.808;4.402;2023-07-13T00:52:35;19.38;;;2.40;;
41875;SDS011;27555;50.808;4.402;2023-07-13T00:55:02;4.80;;;1.25;;
41875;SDS011;27555;50.808;4.402;2023-07-13T00:57:29;11.00;;;2.20;;
41875;SDS011;27555;50.808;4.402;2023-07-13T00:59:57;9.00;;;1.52;;
41875;SDS011;27555;50.808;4.402;2023-07-13T01:02:25;12.07;;;1.52;;
41875;SDS011;27555;50.808;4.402;2023-07-13T01:04:51;8.43;;;1.67;;
41875;SDS011;27555;50.808;4.402;2023-07-13T01:07:16;15.70;;;2.45;;
41875;SDS011;27555;50.808;4.402;2023-07-13T01:09:44;9.48;;;1.60;;
41875;SDS011;27555;50.808;4.402;2023-07-13T01:12:10;12.52;;;2.10;;
41875;SDS011;27555;50.808;4.402;2023-07-13T01:14:36;11.70;;;1.65;;
41875;SDS011;27555;50.808;4.402;2023-07-13T01:17:02;8.38;;;2.15;;
41875;SDS011;27555;50.808;4.402;2023-07-13T01:19:38;9.52;;;1.75;;
41875;SDS011;27555;50.808;4.402;2023-07-13T01:22:17;6.00;;;1.60;;
41875;SDS011;27555;50.808;4.402;2023-07-13T01:24:45;7.93;;;1.35;;
41875;SDS011;27555;50.808;4.402;2023-07-13T01:27:13;12.48;;;2.00;;
41875;SDS011;27555;50.808;4.402;2023-07-13T01:29:41;8.63;;;2.85;;
41875;SDS011;27555;50.808;4.402;2023-07-13T01:32:12;9.40;;;1.98;;
41875;SDS011;27555;50.808;4.402;2023-07-13T01:34:40;10.73;;;2.08;;
41875;SDS011;27555;50.808;4.402;2023-07-13T01:37:09;11.90;;;1.60;;
41875;SDS011;27555;50.808;4.402;2023-07-13T01:39:37;10.25;;;1.88;;
41875;SDS011;27555;50.808;4.402;2023-07-13T01:42:02;6.68;;;1.60;;
41875;SDS011;27555;50.808;4.402;2023-07-13T01:44:28;6.30;;;1.67;;
41875;SDS011;27555;50.808;4.402;2023-07-13T01:46:54;11.90;;;1.85;;
41875;SDS011;27555;50.808;4.402;2023-07-13T01:49:20;9.75;;;2.28;;
41875;SDS011;27555;50.808;4.402;2023-07-13T01:51:45;7.90;;;1.70;;
41875;SDS011;27555;50.808;4.402;2023-07-13T01:54:11;8.93;;;1.60;;
41875;SDS011;27555;50.808;4.402;2023-07-13T01:56:37;7.28;;;1.90;;
41875;SDS011;27555;50.808;4.402;2023-07-13T01:59:02;8.35;;;2.75;;
41875;SDS011;27555;50.808;4.402;2023-07-13T02:01:28;10.85;;;2.38;;
41875;SDS011;27555;50.808;4.402;2023-07-13T02:03:53;5.95;;;1.50;;
41875;SDS011;27555;50.808;4.402;2023-07-13T02:06:19;12.77;;;2.80;;
41875;SDS011;27555;50.808;4.402;2023-07-13T02:08:45;9.35;;;2.10;;
41875;SDS011;27555;50.808;4.402;2023-07-13T02:11:11;10.02;;;1.58;;
41875;SDS011;27555;50.808;4.402;2023-07-13T02:13:36;14.05;;;2.40;;
41875;SDS011;27555;50.808;4.402;2023-07-13T02:16:02;9.63;;;1.92;;
41875;SDS011;27555;50.808;4.402;2023-07-13T02:18:28;8.00;;;1.20;;
41875;SDS011;27555;50.808;4.402;2023-07-13T02:20:53;18.30;;;3.17;;
41875;SDS011;27555;50.808;4.402;2023-07-13T02:23:19;8.57;;;2.17;;
41875;SDS011;27555;50.808;4.402;2023-07-13T02:25:45;7.70;;;2.17;;
41875;SDS011;27555;50.808;4.402;2023-07-13T02:28:10;12.18;;;1.80;;
41875;SDS011;27555;50.808;4.402;2023-07-13T02:30:36;14.05;;;2.00;;
41875;SDS011;27555;50.808;4.402;2023-07-13T02:33:03;6.25;;;1.60;;
41875;SDS011;27555;50.808;4.402;2023-07-13T02:35:29;9.07;;;1.67;;
41875;SDS011;27555;50.808;4.402;2023-07-13T02:37:54;8.23;;;1.85;;
41875;SDS011;27555;50.808;4.402;2023-07-13T02:40:20;9.77;;;1.83;;
41875;SDS011;27555;50.808;4.402;2023-07-13T02:42:45;11.35;;;2.78;;
41875;SDS011;27555;50.808;4.402;2023-07-13T02:45:11;13.52;;;2.00;;
41875;SDS011;27555;50.808;4.402;2023-07-13T02:47:39;9.30;;;2.22;;
41875;SDS011;27555;50.808;4.402;2023-07-13T02:50:06;11.65;;;2.58;;
41875;SDS011;27555;50.808;4.402;2023-07-13T02:52:32;9.60;;;2.47;;
41875;SDS011;27555;50.808;4.402;2023-07-13T02:54:57;17.33;;;2.55;;
41875;SDS011;27555;50.808;4.402;2023-07-13T02:57:23;9.93;;;1.80;;
41875;SDS011;27555;50.808;4.402;2023-07-13T02:59:48;11.43;;;1.95;;
41875;SDS011;27555;50.808;4.402;2023-07-13T03:02:14;14.20;;;2.40;;
41875;SDS011;27555;50.808;4.402;2023-07-13T03:04:40;10.10;;;2.38;;
41875;SDS011;27555;50.808;4.402;2023-07-13T03:07:06;15.70;;;1.92;;
41875;SDS011;27555;50.808;4.402;2023-07-13T03:09:33;11.80;;;2.42;;
41875;SDS011;27555;50.808;4.402;2023-07-13T03:12:00;14.88;;;2.22;;
41875;SDS011;27555;50.808;4.402;2023-07-13T03:14:26;11.95;;;2.60;;
41875;SDS011;27555;50.808;4.402;2023-07-13T03:16:52;10.93;;;1.85;;
41875;SDS011;27555;50.808;4.402;2023-07-13T03:19:18;11.05;;;2.63;;
41875;SDS011;27555;50.808;4.402;2023-07-13T03:21:44;8.73;;;1.92;;
41875;SDS011;27555;50.808;4.402;2023-07-13T03:24:10;7.55;;;2.45;;
41875;SDS011;27555;50.808;4.402;2023-07-13T03:26:35;23.92;;;2.42;;
41875;SDS011;27555;50.808;4.402;2023-07-13T03:29:01;9.80;;;2.28;;
41875;SDS011;27555;50.808;4.402;2023-07-13T03:31:28;10.68;;;2.03;;
41875;SDS011;27555;50.808;4.402;2023-07-13T03:33:55;19.73;;;3.80;;
41875;SDS011;27555;50.808;4.402;2023-07-13T03:36:22;9.60;;;2.00;;
41875;SDS011;27555;50.808;4.402;2023-07-13T03:38:51;9.85;;;2.17;;
41875;SDS011;27555;50.808;4.402;2023-07-13T03:41:18;15.30;;;2.22;;
41875;SDS011;27555;50.808;4.402;2023-07-13T03:43:44;7.47;;;2.03;;
41875;SDS011;27555;50.808;4.402;2023-07-13T03:46:10;9.25;;;2.20;;
41875;SDS011;27555;50.808;4.402;2023-07-13T03:48:36;17.05;;;2.53;;
41875;SDS011;27555;50.808;4.402;2023-07-13T03:51:01;13.27;;;2.45;;
41875;SDS011;27555;50.808;4.402;2023-07-13T03:53:27;10.98;;;3.42;;
41875;SDS011;27555;50.808;4.402;2023-07-13T03:55:53;8.18;;;2.22;;
41875;SDS011;27555;50.808;4.402;2023-07-13T03:58:29;9.55;;;2.53;;
41875;SDS011;27555;50.808;4.402;2023-07-13T04:00:59;11.23;;;2.05;;
41875;SDS011;27555;50.808;4.402;2023-07-13T04:03:27;8.85;;;2.28;;
41875;SDS011;27555;50.808;4.402;2023-07-13T04:05:55;11.90;;;2.70;;
41875;SDS011;27555;50.808;4.402;2023-07-13T04:08:24;11.38;;;2.40;;
41875;SDS011;27555;50.808;4.402;2023-07-13T04:10:51;9.43;;;2.13;;
41875;SDS011;27555;50.808;4.402;2023-07-13T04:13:16;11.23;;;2.17;;
41875;SDS011;27555;50.808;4.402;2023-07-13T04:15:42;11.98;;;2.67;;
41875;SDS011;27555;50.808;4.402;2023-07-13T04:18:07;14.85;;;2.30;;
41875;SDS011;27555;50.808;4.402;2023-07-13T04:20:34;11.60;;;1.88;;
41875;SDS011;27555;50.808;4.402;2023-07-13T04:23:00;6.68;;;2.08;;
41875;SDS011;27555;50.808;4.402;2023-07-13T04:25:26;13.25;;;2.88;;
41875;SDS011;27555;50.808;4.402;2023-07-13T04:27:52;12.20;;;2.00;;
41875;SDS011;27555;50.808;4.402;2023-07-13T04:30:19;19.08;;;2.95;;
41875;SDS011;27555;50.808;4.402;2023-07-13T04:32:45;7.88;;;1.95;;
41875;SDS011;27555;50.808;4.402;2023-07-13T04:35:11;13.63;;;2.65;;
41875;SDS011;27555;50.808;4.402;2023-07-13T04:37:37;12.30;;;2.95;;
41875;SDS011;27555;50.808;4.402;2023-07-13T04:40:03;10.88;;;2.90;;
41875;SDS011;27555;50.808;4.402;2023-07-13T04:42:29;18.55;;;3.55;;
41875;SDS011;27555;50.808;4.402;2023-07-13T04:44:55;13.93;;;2.63;;
41875;SDS011;27555;50.808;4.402;2023-07-13T04:47:21;17.40;;;2.83;;
41875;SDS011;27555;50.808;4.402;2023-07-13T04:49:46;19.02;;;2.78;;
41875;SDS011;27555;50.808;4.402;2023-07-13T04:52:12;9.30;;;2.10;;
41875;SDS011;27555;50.808;4.402;2023-07-13T04:54:37;12.90;;;3.58;;
41875;SDS011;27555;50.808;4.402;2023-07-13T04:57:04;15.75;;;2.88;;
41875;SDS011;27555;50.808;4.402;2023-07-13T04:59:33;10.30;;;2.10;;
41875;SDS011;27555;50.808;4.402;2023-07-13T05:01:59;12.25;;;2.00;;
41875;SDS011;27555;50.808;4.402;2023-07-13T05:04:26;13.50;;;2.53;;
41875;SDS011;27555;50.808;4.402;2023-07-13T05:06:52;17.08;;;2.83;;
41875;SDS011;27555;50.808;4.402;2023-07-13T05:09:17;15.63;;;2.80;;
41875;SDS011;27555;50.808;4.402;2023-07-13T05:11:43;11.77;;;2.47;;
41875;SDS011;27555;50.808;4.402;2023-07-13T05:14:09;18.60;;;3.78;;
41875;SDS011;27555;50.808;4.402;2023-07-13T05:16:37;16.67;;;2.85;;
41875;SDS011;27555;50.808;4.402;2023-07-13T05:19:02;12.85;;;3.10;;
41875;SDS011;27555;50.808;4.402;2023-07-13T05:21:28;14.85;;;3.03;;
41875;SDS011;27555;50.808;4.402;2023-07-13T05:23:54;12.55;;;3.08;;
41875;SDS011;27555;50.808;4.402;2023-07-13T05:26:19;12.55;;;2.33;;
41875;SDS011;27555;50.808;4.402;2023-07-13T05:28:45;9.80;;;2.40;;
41875;SDS011;27555;50.808;4.402;2023-07-13T05:31:11;10.70;;;2.50;;
41875;SDS011;27555;50.808;4.402;2023-07-13T05:33:38;9.07;;;2.08;;
41875;SDS011;27555;50.808;4.402;2023-07-13T05:36:04;12.90;;;2.45;;
41875;SDS011;27555;50.808;4.402;2023-07-13T05:38:30;6.72;;;2.45;;
41875;SDS011;27555;50.808;4.402;2023-07-13T05:40:56;16.88;;;2.95;;
41875;SDS011;27555;50.808;4.402;2023-07-13T05:43:22;14.38;;;2.65;;
41875;SDS011;27555;50.808;4.402;2023-07-13T05:45:48;17.05;;;2.83;;
41875;SDS011;27555;50.808;4.402;2023-07-13T05:48:14;15.10;;;2.55;;
41875;SDS011;27555;50.808;4.402;2023-07-13T05:50:40;9.32;;;2.92;;
41875;SDS011;27555;50.808;4.402;2023-07-13T05:53:06;20.67;;;3.38;;
41875;SDS011;27555;50.808;4.402;2023-07-13T05:55:32;15.57;;;2.95;;
41875;SDS011;27555;50.808;4.402;2023-07-13T05:57:58;8.90;;;2.05;;
41875;SDS011;27555;50.808;4.402;2023-07-13T06:00:25;16.10;;;2.28;;
41875;SDS011;27555;50.808;4.402;2023-07-13T06:02:51;14.77;;;2.53;;
41875;SDS011;27555;50.808;4.402;2023-07-13T06:05:17;12.35;;;2.75;;
41875;SDS011;27555;50.808;4.402;2023-07-13T06:07:42;12.13;;;2.80;;
41875;SDS011;27555;50.808;4.402;2023-07-13T06:10:08;10.75;;;1.88;;
41875;SDS011;27555;50.808;4.402;2023-07-13T06:12:34;12.40;;;2.17;;
41875;SDS011;27555;50.808;4.402;2023-07-13T06:15:00;12.35;;;3.10;;
41875;SDS011;27555;50.808;4.402;2023-07-13T06:17:26;14.18;;;2.90;;
41875;SDS011;27555;50.808;4.402;2023-07-13T06:19:51;13.75;;;2.50;;
41875;SDS011;27555;50.808;4.402;2023-07-13T06:22:17;10.18;;;2.53;;
41875;SDS011;27555;50.808;4.402;2023-07-13T06:24:43;9.02;;;2.95;;
41875;SDS011;27555;50.808;4.402;2023-07-13T06:27:08;13.50;;;2.60;;
41875;SDS011;27555;50.808;4.402;2023-07-13T06:29:34;12.60;;;2.40;;
41875;SDS011;27555;50.808;4.402;2023-07-13T06:31:59;11.77;;;2.75;;
41875;SDS011;27555;50.808;4.402;2023-07-13T06:34:25;10.40;;;2.72;;
41875;SDS011;27555;50.808;4.402;2023-07-13T06:36:51;16.13;;;3.50;;
41875;SDS011;27555;50.808;4.402;2023-07-13T06:39:16;21.67;;;3.97;;
41875;SDS011;27555;50.808;4.402;2023-07-13T06:41:42;13.65;;;2.38;;
41875;SDS011;27555;50.808;4.402;2023-07-13T06:44:08;10.23;;;2.42;;
41875;SDS011;27555;50.808;4.402;2023-07-13T06:46:33;9.20;;;2.00;;
41875;SDS011;27555;50.808;4.402;2023-07-13T06:48:59;15.45;;;2.92;;
41875;SDS011;27555;50.808;4.402;2023-07-13T06:51:24;13.75;;;3.47;;
41875;SDS011;27555;50.808;4.402;2023-07-13T06:53:51;23.58;;;3.83;;
41875;SDS011;27555;50.808;4.402;2023-07-13T06:56:16;14.25;;;2.50;;
41875;SDS011;27555;50.808;4.402;2023-07-13T06:58:42;14.35;;;3.28;;
41875;SDS011;27555;50.808;4.402;2023-07-13T07:01:08;9.20;;;2.03;;
41875;SDS011;27555;50.808;4.402;2023-07-13T07:03:34;13.15;;;2.85;;
41875;SDS011;27555;50.808;4.402;2023-07-13T07:06:00;14.07;;;2.78;;
41875;SDS011;27555;50.808;4.402;2023-07-13T07:08:49;9.93;;;2.47;;
41875;SDS011;27555;50.808;4.402;2023-07-13T07:11:17;13.63;;;2.58;;
41875;SDS011;27555;50.808;4.402;2023-07-13T07:13:44;12.88;;;2.80;;
41875;SDS011;27555;50.808;4.402;2023-07-13T07:16:10;6.97;;;1.98;;
41875;SDS011;27555;50.808;4.402;2023-07-13T07:18:36;9.77;;;2.70;;
41875;SDS011;27555;50.808;4.402;2023-07-13T07:21:02;15.82;;;2.67;;
41875;SDS011;27555;50.808;4.402;2023-07-13T07:23:29;10.98;;;2.25;;
41875;SDS011;27555;50.808;4.402;2023-07-13T07:25:55;16.35;;;2.97;;
41875;SDS011;27555;50.808;4.402;2023-07-13T07:28:20;7.63;;;1.90;;
41875;SDS011;27555;50.808;4.402;2023-07-13T07:30:46;11.75;;;2.40;;
41875;SDS011;27555;50.808;4.402;2023-07-13T07:33:13;8.88;;;1.83;;
41875;SDS011;27555;50.808;4.402;2023-07-13T07:35:39;16.55;;;3.63;;
41875;SDS011;27555;50.808;4.402;2023-07-13T07:38:05;9.95;;;2.67;;
41875;SDS011;27555;50.808;4.402;2023-07-13T07:40:30;8.00;;;2.13;;
41875;SDS011;27555;50.808;4.402;2023-07-13T07:42:56;11.57;;;1.75;;
41875;SDS011;27555;50.808;4.402;2023-07-13T07:45:22;10.73;;;2.25;;
41875;SDS011;27555;50.808;4.402;2023-07-13T07:47:48;8.05;;;2.03;;
41875;SDS011;27555;50.808;4.402;2023-07-13T07:50:14;12.18;;;2.38;;
41875;SDS011;27555;50.808;4.402;2023-07-13T07:52:41;7.38;;;1.55;;
41875;SDS011;27555;50.808;4.402;2023-07-13T07:55:09;16.48;;;2.25;;
41875;SDS011;27555;50.808;4.402;2023-07-13T07:57:34;12.73;;;2.78;;
41875;SDS011;27555;50.808;4.402;2023-07-13T08:00:00;10.48;;;2.00;;
41875;SDS011;27555;50.808;4.402;2023-07-13T08:02:25;7.55;;;1.80;;
41875;SDS011;27555;50.808;4.402;2023-07-13T08:04:51;8.95;;;2.38;;
41875;SDS011;27555;50.808;4.402;2023-07-13T08:07:17;7.43;;;1.70;;
41875;SDS011;27555;50.808;4.402;2023-07-13T08:09:43;12.40;;;2.05;;
41875;SDS011;27555;50.808;4.402;2023-07-13T08:12:08;15.48;;;2.63;;
41875;SDS011;27555;50.808;4.402;2023-07-13T08:14:34;7.82;;;2.28;;
41875;SDS011;27555;50.808;4.402;2023-07-13T08:17:00;11.68;;;1.83;;
41875;SDS011;27555;50.808;4.402;2023-07-13T08:19:26;9.88;;;2.00;;
41875;SDS011;27555;50.808;4.402;2023-07-13T08:21:52;9.20;;;2.22;;
41875;SDS011;27555;50.808;4.402;2023-07-13T08:24:18;9.20;;;1.95;;
41875;SDS011;27555;50.808;4.402;2023-07-13T08:26:46;6.82;;;1.77;;
41875;SDS011;27555;50.808;4.402;2023-07-13T08:29:12;17.75;;;3.53;;
41875;SDS011;27555;50.808;4.402;2023-07-13T08:31:37;14.38;;;2.83;;
41875;SDS011;27555;50.808;4.402;2023-07-13T08:34:03;10.82;;;2.50;;
41875;SDS011;27555;50.808;4.402;2023-07-13T08:36:29;9.63;;;2.22;;
41875;SDS011;27555;50.808;4.402;2023-07-13T08:38:54;11.57;;;1.95;;
41875;SDS011;27555;50.808;4.402;2023-07-13T08:41:20;7.10;;;1.73;;
41875;SDS011;27555;50.808;4.402;2023-07-13T08:43:47;8.60;;;2.08;;
41875;SDS011;27555;50.808;4.402;2023-07-13T08:46:35;9.73;;;1.95;;
41875;SDS011;27555;50.808;4.402;2023-07-13T08:49:05;8.52;;;1.70;;
41875;SDS011;27555;50.808;4.402;2023-07-13T08:51:42;8.27;;;2.17;;
41875;SDS011;27555;50.808;4.402;2023-07-13T08:54:26;7.30;;;1.52;;
41875;SDS011;27555;50.808;4.402;2023-07-13T08:56:55;9.90;;;2.05;;
41875;SDS011;27555;50.808;4.402;2023-07-13T08:59:25;7.43;;;1.63;;
41875;SDS011;27555;50.808;4.402;2023-07-13T09:04:50;10.75;;;2.20;;
41875;SDS011;27555;50.808;4.402;2023-07-13T09:07:39;8.88;;;2.22;;
41875;SDS011;27555;50.808;4.402;2023-07-13T09:15:56;10.30;;;2.40;;
41875;SDS011;27555;50.808;4.402;2023-07-13T09:18:28;7.80;;;2.08;;
41875;SDS011;27555;50.808;4.402;2023-07-13T09:20:59;11.35;;;2.08;;
41875;SDS011;27555;50.808;4.402;2023-07-13T09:23:30;6.35;;;1.63;;
41875;SDS011;27555;50.808;4.402;2023-07-13T09:26:05;12.13;;;2.10;;
41875;SDS011;27555;50.808;4.402;2023-07-13T09:31:19;12.48;;;1.67;;
41875;SDS011;27555;50.808;4.402;2023-07-13T09:33:51;7.20;;;1.50;;
41875;SDS011;27555;50.808;4.402;2023-07-13T09:36:21;7.88;;;1.60;;
41875;SDS011;27555;50.808;4.402;2023-07-13T09:39:02;7.93;;;2.20;;
41875;SDS011;27555;50.808;4.402;2023-07-13T09:41:41;8.23;;;1.95;;
41875;SDS011;27555;50.808;4.402;2023-07-13T09:44:36;5.88;;;1.50;;
41875;SDS011;27555;50.808;4.402;2023-07-13T09:47:03;7.47;;;1.80;;
41875;SDS011;27555;50.808;4.402;2023-07-13T09:49:41;9.52;;;1.67;;
41875;SDS011;27555;50.808;4.402;2023-07-13T09:52:11;10.88;;;2.03;;
41875;SDS011;27555;50.808;4.402;2023-07-13T09:54:39;12.82;;;1.85;;
41875;SDS011;27555;50.808;4.402;2023-07-13T09:57:14;5.03;;;1.35;;
41875;SDS011;27555;50.808;4.402;2023-07-13T09:59:45;6.65;;;1.60;;
41875;SDS011;27555;50.808;4.402;2023-07-13T10:02:22;7.68;;;2.05;;
41875;SDS011;27555;50.808;4.402;2023-07-13T10:04:51;8.55;;;2.03;;
41875;SDS011;27555;50.808;4.402;2023-07-13T10:07:23;5.82;;;1.70;;
41875;SDS011;27555;50.808;4.402;2023-07-13T10:09:51;10.75;;;1.60;;
41875;SDS011;27555;50.808;4.402;2023-07-13T10:12:21;7.00;;;1.60;;
41875;SDS011;27555;50.808;4.402;2023-07-13T10:14:49;8.93;;;1.85;;
41875;SDS011;27555;50.808;4.402;2023-07-13T10:17:19;8.82;;;1.85;;
41875;SDS011;27555;50.808;4.402;2023-07-13T10:19:55;5.85;;;1.63;;
41875;SDS011;27555;50.808;4.402;2023-07-13T10:22:36;6.05;;;1.50;;
41875;SDS011;27555;50.808;4.402;2023-07-13T10:25:07;5.70;;;1.58;;
41875;SDS011;27555;50.808;4.402;2023-07-13T10:27:38;5.53;;;1.20;;
41875;SDS011;27555;50.808;4.402;2023-07-13T10:30:12;6.03;;;1.52;;
41875;SDS011;27555;50.808;4.402;2023-07-13T10:32:42;8.43;;;1.35;;
41875;SDS011;27555;50.808;4.402;2023-07-13T10:35:12;4.40;;;1.38;;
41875;SDS011;27555;50.808;4.402;2023-07-13T10:40:27;4.28;;;1.38;;
41875;SDS011;27555;50.808;4.402;2023-07-13T10:42:57;7.90;;;1.92;;
41875;SDS011;27555;50.808;4.402;2023-07-13T10:45:33;6.75;;;1.92;;
41875;SDS011;27555;50.808;4.402;2023-07-13T10:48:00;5.47;;;1.40;;
41875;SDS011;27555;50.808;4.402;2023-07-13T10:50:27;6.78;;;1.50;;
41875;SDS011;27555;50.808;4.402;2023-07-13T10:53:02;6.20;;;1.30;;
41875;SDS011;27555;50.808;4.402;2023-07-13T10:58:19;4.78;;;2.10;;
41875;SDS011;27555;50.808;4.402;2023-07-13T11:01:02;8.70;;;1.60;;
41875;SDS011;27555;50.808;4.402;2023-07-13T11:06:37;4.72;;;1.23;;
41875;SDS011;27555;50.808;4.402;2023-07-13T11:22:45;8.13;;;1.67;;
41875;SDS011;27555;50.808;4.402;2023-07-13T11:25:37;8.57;;;1.30;;
41875;SDS011;27555;50.808;4.402;2023-07-13T11:28:11;4.97;;;1.17;;
41875;SDS011;27555;50.808;4.402;2023-07-13T11:30:47;9.68;;;1.65;;
41875;SDS011;27555;50.808;4.402;2023-07-13T11:33:25;7.28;;;1.23;;
41875;SDS011;27555;50.808;4.402;2023-07-13T11:36:05;3.95;;;1.73;;
41875;SDS011;27555;50.808;4.402;2023-07-13T11:38:38;8.95;;;1.42;;
41875;SDS011;27555;50.808;4.402;2023-07-13T11:41:28;6.85;;;1.40;;
41875;SDS011;27555;50.808;4.402;2023-07-13T11:44:16;7.32;;;1.08;;
41875;SDS011;27555;50.808;4.402;2023-07-13T11:46:45;4.10;;;1.15;;
41875;SDS011;27555;50.808;4.402;2023-07-13T11:49:16;4.68;;;1.40;;
41875;SDS011;27555;50.808;4.402;2023-07-13T11:51:46;6.38;;;1.02;;
41875;SDS011;27555;50.808;4.402;2023-07-13T11:56:52;4.25;;;0.90;;
41875;SDS011;27555;50.808;4.402;2023-07-13T11:59:19;6.13;;;1.45;;
41875;SDS011;27555;50.808;4.402;2023-07-13T12:01:47;5.68;;;1.35;;
41875;SDS011;27555;50.808;4.402;2023-07-13T12:04:27;6.40;;;1.00;;
41875;SDS011;27555;50.808;4.402;2023-07-13T12:07:06;3.80;;;0.95;;
41875;SDS011;27555;50.808;4.402;2023-07-13T12:09:39;8.65;;;1.42;;
41875;SDS011;27555;50.808;4.402;2023-07-13T12:12:08;9.07;;;1.48;;
41875;SDS011;27555;50.808;4.402;2023-07-13T12:14:39;5.07;;;1.58;;
41875;SDS011;27555;50.808;4.402;2023-07-13T12:17:08;3.25;;;1.23;;
41875;SDS011;27555;50.808;4.402;2023-07-13T12:19:41;7.72;;;1.00;;
41875;SDS011;27555;50.808;4.402;2023-07-13T12:22:08;4.00;;;1.40;;
41875;SDS011;27555;50.808;4.402;2023-07-13T12:24:36;6.63;;;1.35;;
41875;SDS011;27555;50.808;4.402;2023-07-13T12:27:03;7.22;;;1.48;;
41875;SDS011;27555;50.808;4.402;2023-07-13T12:29:31;7.55;;;1.20;;
41875;SDS011;27555;50.808;4.402;2023-07-13T12:31:57;5.00;;;1.02;;
41875;SDS011;27555;50.808;4.402;2023-07-13T12:34:24;2.60;;;0.88;;
41875;SDS011;27555;50.808;4.402;2023-07-13T12:36:52;3.00;;;1.02;;
41875;SDS011;27555;50.808;4.402;2023-07-13T12:39:24;5.32;;;1.52;;
41875;SDS011;27555;50.808;4.402;2023-07-13T12:42:09;2.15;;;1.02;;
41875;SDS011;27555;50.808;4.402;2023-07-13T12:47:25;5.00;;;1.10;;
41875;SDS011;27555;50.808;4.402;2023-07-13T12:49:55;9.23;;;1.45;;
41875;SDS011;27555;50.808;4.402;2023-07-13T12:52:24;4.47;;;1.10;;
41875;SDS011;27555;50.808;4.402;2023-07-13T12:55:39;3.72;;;1.27;;
41875;SDS011;27555;50.808;4.402;2023-07-13T12:57:57;8.38;;;2.00;;
41875;SDS011;27555;50.808;4.402;2023-07-13T13:00:27;4.75;;;1.80;;
41875;SDS011;27555;50.808;4.402;2023-07-13T13:03:00;5.15;;;1.48;;
41875;SDS011;27555;50.808;4.402;2023-07-13T13:05:30;3.65;;;1.45;;
41875;SDS011;27555;50.808;4.402;2023-07-13T13:07:58;4.88;;;1.00;;
41875;SDS011;27555;50.808;4.402;2023-07-13T13:10:24;4.93;;;1.30;;
41875;SDS011;27555;50.808;4.402;2023-07-13T13:12:51;5.82;;;1.20;;
41875;SDS011;27555;50.808;4.402;2023-07-13T13:15:17;6.50;;;1.73;;
41875;SDS011;27555;50.808;4.402;2023-07-13T13:17:43;6.32;;;1.75;;
41875;SDS011;27555;50.808;4.402;2023-07-13T13:20:19;8.43;;;1.40;;
41875;SDS011;27555;50.808;4.402;2023-07-13T13:22:45;3.20;;;1.48;;
41875;SDS011;27555;50.808;4.402;2023-07-13T13:25:11;5.60;;;1.80;;
41875;SDS011;27555;50.808;4.402;2023-07-13T13:27:39;11.93;;;1.25;;
41875;SDS011;27555;50.808;4.402;2023-07-13T13:30:12;7.70;;;1.95;;
41875;SDS011;27555;50.808;4.402;2023-07-13T13:32:40;3.97;;;1.27;;
41875;SDS011;27555;50.808;4.402;2023-07-13T13:35:14;5.60;;;0.80;;
41875;SDS011;27555;50.808;4.402;2023-07-13T13:37:42;3.72;;;1.15;;
41875;SDS011;27555;50.808;4.402;2023-07-13T13:40:15;3.28;;;0.95;;
41875;SDS011;27555;50.808;4.402;2023-07-13T13:42:43;5.97;;;1.13;;
41875;SDS011;27555;50.808;4.402;2023-07-13T13:45:12;6.90;;;1.27;;
41875;SDS011;27555;50.808;4.402;2023-07-13T13:47:38;2.40;;;0.90;;
41875;SDS011;27555;50.808;4.402;2023-07-13T13:50:12;2.78;;;1.00;;
41875;SDS011;27555;50.808;4.402;2023-07-13T13:52:49;3.25;;;1.08;;
41875;SDS011;27555;50.808;4.402;2023-07-13T13:55:18;4.80;;;1.13;;
41875;SDS011;27555;50.808;4.402;2023-07-13T13:57:45;2.42;;;1.05;;
41875;SDS011;27555;50.808;4.402;2023-07-13T14:00:11;1.35;;;0.82;;
41875;SDS011;27555;50.808;4.402;2023-07-13T14:02:39;5.03;;;1.00;;
41875;SDS011;27555;50.808;4.402;2023-07-13T14:05:13;5.35;;;0.95;;
41875;SDS011;27555;50.808;4.402;2023-07-13T14:07:41;6.75;;;1.33;;
41875;SDS011;27555;50.808;4.402;2023-07-13T14:10:14;4.38;;;1.50;;
41875;SDS011;27555;50.808;4.402;2023-07-13T14:12:44;2.83;;;1.23;;
41875;SDS011;27555;50.808;4.402;2023-07-13T14:15:17;3.60;;;0.98;;
41875;SDS011;27555;50.808;4.402;2023-07-13T14:17:45;3.67;;;1.13;;
41875;SDS011;27555;50.808;4.402;2023-07-13T14:20:11;5.90;;;1.27;;
41875;SDS011;27555;50.808;4.402;2023-07-13T14:22:37;9.18;;;1.60;;
41875;SDS011;27555;50.808;4.402;2023-07-13T14:25:03;7.15;;;1.52;;
41875;SDS011;27555;50.808;4.402;2023-07-13T14:27:29;6.07;;;1.42;;
41875;SDS011;27555;50.808;4.402;2023-07-13T14:29:54;10.23;;;1.25;;
41875;SDS011;27555;50.808;4.402;2023-07-13T14:32:20;5.30;;;1.45;;
41875;SDS011;27555;50.808;4.402;2023-07-13T14:34:46;2.92;;;1.05;;
41875;SDS011;27555;50.808;4.402;2023-07-13T14:37:12;7.35;;;1.30;;
41875;SDS011;27555;50.808;4.402;2023-07-13T14:39:39;3.47;;;1.35;;
41875;SDS011;27555;50.808;4.402;2023-07-13T14:42:08;3.22;;;1.10;;
41875;SDS011;27555;50.808;4.402;2023-07-13T14:44:34;5.53;;;1.75;;
41875;SDS011;27555;50.808;4.402;2023-07-13T14:47:01;2.30;;;1.10;;
41875;SDS011;27555;50.808;4.402;2023-07-13T14:49:32;5.03;;;1.30;;
41875;SDS011;27555;50.808;4.402;2023-07-13T14:52:02;3.60;;;1.35;;
41875;SDS011;27555;50.808;4.402;2023-07-13T14:54:35;4.63;;;1.20;;
41875;SDS011;27555;50.808;4.402;2023-07-13T14:57:07;3.97;;;1.30;;
41875;SDS011;27555;50.808;4.402;2023-07-13T14:59:41;4.28;;;0.75;;
41875;SDS011;27555;50.808;4.402;2023-07-13T15:02:28;2.65;;;1.05;;
41875;SDS011;27555;50.808;4.402;2023-07-13T15:04:56;3.55;;;1.02;;
41875;SDS011;27555;50.808;4.402;2023-07-13T15:07:22;3.92;;;1.15;;
41875;SDS011;27555;50.808;4.402;2023-07-13T15:09:48;2.72;;;1.13;;
41875;SDS011;27555;50.808;4.402;2023-07-13T15:12:15;4.55;;;1.52;;
41875;SDS011;27555;50.808;4.402;2023-07-13T15:14:41;3.28;;;0.90;;
41875;SDS011;27555;50.808;4.402;2023-07-13T15:17:23;3.22;;;1.25;;
41875;SDS011;27555;50.808;4.402;2023-07-13T15:20:44;3.58;;;1.42;;
41875;SDS011;27555;50.808;4.402;2023-07-13T15:22:54;2.83;;;0.80;;
41875;SDS011;27555;50.808;4.402;2023-07-13T15:25:22;5.35;;;1.13;;
41875;SDS011;27555;50.808;4.402;2023-07-13T15:27:50;4.75;;;1.00;;
41875;SDS011;27555;50.808;4.402;2023-07-13T15:30:17;3.42;;;1.30;;